Time;durP1;ratioP1;P1;durP2;ratioP2;P2;SDS_P1;SDS_P2;PMS_P1;PMS_P2;Temp;Humidity;BMP_temperature;BMP_pressure;BME280_temperature;BME280_humidity;BME280_pressure;Samples;Min_cycle;Max_cycle;Signal;HPM_P1;HPM_P2
2023/01/20 00:00:02;;;;;;;5.70;3.77;;;;;;;-3.38;100.00;95900.84;5113047;28;20223;-58
2023/01/20 00:02:29;;;;;;;4.07;3.70;;;;;;;-3.34;100.00;95907.56;5112919;28;20228;-56
2023/01/20 00:04:55;;;;;;;4.67;4.23;;;;;;;-3.42;98.85;95913.09;5116945;28;20557;-58
2023/01/20 00:07:22;;;;;;;4.40;4.00;;;;;;;-3.43;99.94;95914.00;5117245;28;20233;-57
2023/01/20 00:09:50;;;;;;;4.50;4.10;;;;;;;-3.37;100.00;95907.72;5116719;28;20197;-58
2023/01/20 00:12:16;;;;;;;4.70;4.20;;;;;;;-3.44;100.00;95912.34;5117289;28;20511;-56
2023/01/20 00:14:43;;;;;;;4.37;3.90;;;;;;;-3.41;100.00;95916.53;5115910;28;20231;-58
2023/01/20 00:17:09;;;;;;;3.93;3.53;;;;;;;-3.43;99.54;95914.00;5116394;28;20193;-58
2023/01/20 00:19:36;;;;;;;4.80;4.40;;;;;;;-3.51;98.31;95918.75;5114321;28;20216;-58
2023/01/20 00:22:02;;;;;;;4.70;4.30;;;;;;;-3.49;100.00;95935.00;5114119;28;20205;-58
2023/01/20 00:24:29;;;;;;;4.97;4.47;;;;;;;-3.52;100.00;95933.41;5115410;28;20300;-58
2023/01/20 00:26:57;;;;;;;4.40;3.90;;;;;;;-3.53;100.00;95933.47;5128661;28;20228;-58
2023/01/20 00:29:23;;;;;;;5.27;4.07;;;;;;;-3.51;100.00;95931.66;5133420;28;20197;-57
2023/01/20 00:31:49;;;;;;;6.70;4.13;;;;;;;-3.52;100.00;95932.56;5123564;28;20208;-58
2023/01/20 00:34:16;;;;;;;4.33;3.90;;;;;;;-3.52;99.92;95936.00;5124260;28;20189;-57
2023/01/20 00:36:43;;;;;;;7.10;4.43;;;;;;;-3.57;100.00;95935.38;5115492;28;20209;-58
2023/01/20 00:39:09;;;;;;;5.10;4.60;;;;;;;-3.57;99.47;95943.13;5112510;28;20197;-59
2023/01/20 00:41:36;;;;;;;5.20;4.70;;;;;;;-3.60;98.67;95937.25;5112621;28;20209;-58
2023/01/20 00:44:03;;;;;;;5.40;4.90;;;;;;;-3.69;98.74;95945.47;5112778;28;20205;-57
2023/01/20 00:46:30;;;;;;;4.90;4.50;;;;;;;-3.75;98.28;95953.50;5111506;28;20201;-59
2023/01/20 00:48:56;;;;;;;5.20;4.67;;;;;;;-3.76;98.49;95952.69;5112775;28;20201;-58
2023/01/20 00:51:23;;;;;;;5.20;4.70;;;;;;;-3.73;99.99;95955.13;5116303;28;20205;-58
2023/01/20 00:53:49;;;;;;;5.30;4.60;;;;;;;-3.66;100.00;95958.25;5116466;28;20200;-59
2023/01/20 00:56:16;;;;;;;5.13;4.63;;;;;;;-3.66;100.00;95956.50;5115866;28;20197;-59
2023/01/20 00:58:44;;;;;;;4.87;4.37;;;;;;;-3.66;100.00;95960.81;5116483;28;20193;-58
2023/01/20 01:01:12;;;;;;;5.23;4.53;;;;;;;-3.69;100.00;95964.41;5112090;28;20225;-58
2023/01/20 01:03:38;;;;;;;7.00;4.80;;;;;;;-3.71;99.01;95965.38;5112207;28;20201;-59
2023/01/20 01:06:07;;;;;;;5.57;4.83;;;;;;;-3.80;98.90;95964.06;5111431;28;20201;-58
2023/01/20 01:08:34;;;;;;;5.07;4.57;;;;;;;-3.79;100.00;95967.50;5111966;28;20599;-59
2023/01/20 01:11:00;;;;;;;7.97;4.80;;;;;;;-3.76;100.00;95968.19;5111855;28;20197;-58
2023/01/20 01:13:27;;;;;;;4.43;4.00;;;;;;;-3.82;100.00;95968.47;5111361;28;20213;-57
2023/01/20 01:15:53;;;;;;;5.90;4.37;;;;;;;-3.80;98.95;95977.00;5111045;28;20209;-58
2023/01/20 01:18:21;;;;;;;4.47;4.13;;;;;;;-3.78;100.00;95984.66;5111470;28;20194;-58
2023/01/20 01:20:47;;;;;;;6.67;4.23;;;;;;;-3.78;100.00;95980.31;5111592;28;20209;-57
2023/01/20 01:23:14;;;;;;;4.90;4.40;;;;;;;-3.77;100.00;95981.16;5111876;28;20551;-57
2023/01/20 01:25:40;;;;;;;5.00;4.60;;;;;;;-3.72;100.00;95987.78;5111270;28;20197;-57
2023/01/20 01:28:07;;;;;;;5.37;4.87;;;;;;;-3.75;100.00;95994.84;5110310;28;20219;-58
2023/01/20 01:30:34;;;;;;;5.83;5.03;;;;;;;-3.76;100.00;95998.34;5111000;28;20207;-58
2023/01/20 01:33:00;;;;;;;4.77;4.27;;;;;;;-3.77;100.00;96004.41;5111688;28;20229;-58
2023/01/20 01:35:28;;;;;;;5.20;4.70;;;;;;;-3.75;100.00;96010.34;5111382;28;20515;-57
2023/01/20 01:37:54;;;;;;;5.73;4.43;;;;;;;-3.72;100.00;96011.03;5111932;28;20217;-58
2023/01/20 01:40:21;;;;;;;4.50;4.10;;;;;;;-3.76;100.00;96011.25;5110664;28;20208;-58
2023/01/20 01:42:47;;;;;;;4.43;3.90;;;;;;;-3.75;100.00;96010.34;5112129;28;20248;-58
2023/01/20 01:45:35;;;;;;;5.03;4.40;;;;;;;-3.73;100.00;96024.03;5113034;28;20207;-60
2023/01/20 01:48:05;;;;;;;4.33;3.90;;;;;;;-3.69;100.00;96020.41;5115687;28;20216;-56
2023/01/20 01:50:38;;;;;;;4.63;4.23;;;;;;;-3.72;100.00;96020.53;5115719;28;20221;-56
2023/01/20 01:53:06;;;;;;;5.27;4.10;;;;;;;-3.76;100.00;96027.59;5115189;28;20204;-58
2023/01/20 01:55:35;;;;;;;4.47;4.03;;;;;;;-3.78;99.22;96025.97;5116214;28;20204;-59
2023/01/20 01:58:02;;;;;;;4.50;4.10;;;;;;;-3.76;100.00;96021.59;5116000;28;20207;-57
2023/01/20 02:00:29;;;;;;;4.37;3.97;;;;;;;-3.79;100.00;96024.31;5117251;28;20200;-58
2023/01/20 02:02:56;;;;;;;5.17;4.77;;;;;;;-3.91;100.00;96023.16;5116238;28;20232;-58
2023/01/20 02:05:24;;;;;;;4.67;4.23;;;;;;;-3.88;100.00;96027.31;5117199;28;20227;-58
2023/01/20 02:07:52;;;;;;;7.17;5.10;;;;;;;-3.88;100.00;96024.75;5117062;28;20228;-60
2023/01/20 02:10:18;;;;;;;5.20;4.33;;;;;;;-3.80;100.00;96025.22;5116342;28;20201;-58
2023/01/20 02:12:48;;;;;;;5.70;4.70;;;;;;;-3.84;100.00;96024.53;5115913;28;20204;-58
2023/01/20 02:15:15;;;;;;;4.33;3.93;;;;;;;-3.79;100.00;96027.72;5116197;28;20599;-59
2023/01/20 02:17:48;;;;;;;4.60;4.20;;;;;;;-3.93;100.00;96035.28;5117415;28;20202;-58
2023/01/20 02:20:33;;;;;;;4.80;3.97;;;;;;;-3.94;100.00;96033.63;5118766;28;20196;-57
2023/01/20 02:23:04;;;;;;;4.30;3.90;;;;;;;-3.97;100.00;96040.66;5119916;28;20515;-58
2023/01/20 02:26:10;;;;;;;4.20;3.90;;;;;;;-3.92;100.00;96041.28;5118166;28;20665;-58
2023/01/20 02:28:51;;;;;;;4.40;4.00;;;;;;;-3.89;100.00;96038.56;5068866;28;20304;-60
2023/01/20 02:31:44;;;;;;;4.70;4.27;;;;;;;-3.93;100.00;96052.53;5115270;28;20197;-57
2023/01/20 02:34:16;;;;;;;5.10;4.27;;;;;;;-3.95;100.00;96054.34;5114529;28;20193;-57
2023/01/20 02:36:46;;;;;;;4.53;4.13;;;;;;;-4.00;100.00;96054.53;5113936;28;20260;-58
2023/01/20 02:39:17;;;;;;;6.90;4.40;;;;;;;-4.00;100.00;96051.16;5113937;28;20204;-59
2023/01/20 02:41:50;;;;;;;5.00;4.50;;;;;;;-3.97;100.00;96059.59;5114057;28;20216;-57
2023/01/20 02:44:22;;;;;;;4.40;4.00;;;;;;;-3.95;100.00;96051.75;5114591;28;20206;-57
2023/01/20 02:46:54;;;;;;;4.90;4.43;;;;;;;-3.98;100.00;96059.66;5113265;28;20644;-58
2023/01/20 02:49:24;;;;;;;4.80;4.40;;;;;;;-4.02;100.00;96059.78;5114156;28;20214;-58
2023/01/20 02:51:54;;;;;;;4.53;3.87;;;;;;;-4.06;100.00;96060.00;5114041;28;20211;-58
2023/01/20 02:54:21;;;;;;;4.87;4.27;;;;;;;-4.05;100.00;96059.94;5117165;28;20200;-58
2023/01/20 02:56:49;;;;;;;4.60;4.10;;;;;;;-3.98;100.00;96059.66;5117535;28;20589;-57
2023/01/20 02:59:17;;;;;;;4.37;3.90;;;;;;;-4.04;100.00;96064.16;5118901;28;20207;-58
2023/01/20 03:01:48;;;;;;;4.30;3.73;;;;;;;-4.05;100.00;96066.84;5116067;28;20236;-58
2023/01/20 03:04:18;;;;;;;5.33;4.20;;;;;;;-4.10;100.00;96061.88;5114632;28;20231;-58
2023/01/20 03:07:01;;;;;;;4.17;3.87;;;;;;;-4.09;100.00;96071.31;5079557;28;20209;-58
2023/01/20 03:09:30;;;;;;;4.30;3.90;;;;;;;-4.11;100.00;96069.72;5113881;28;20742;-57
2023/01/20 03:11:59;;;;;;;4.47;4.07;;;;;;;-4.08;100.00;96074.72;5114005;28;20622;-58
2023/01/20 03:14:25;;;;;;;6.13;4.03;;;;;;;-4.11;100.00;96080.84;5113786;28;20329;-57
2023/01/20 03:16:52;;;;;;;4.50;4.10;;;;;;;-4.05;100.00;96077.16;5113586;28;20201;-59
2023/01/20 03:19:20;;;;;;;6.17;4.67;;;;;;;-4.12;100.00;96074.03;5114278;28;20214;-58
2023/01/20 03:21:46;;;;;;;4.17;3.80;;;;;;;-4.05;100.00;96080.59;5113709;28;20737;-57
2023/01/20 03:24:13;;;;;;;6.37;5.33;;;;;;;-4.13;100.00;96087.84;5113096;28;20205;-58
2023/01/20 03:26:39;;;;;;;4.83;4.33;;;;;;;-4.11;100.00;96086.00;5112936;28;20646;-57
2023/01/20 03:29:08;;;;;;;4.83;4.43;;;;;;;-4.03;100.00;96088.25;5113912;28;20267;-58
2023/01/20 03:31:36;;;;;;;5.40;4.90;;;;;;;-4.02;100.00;96098.53;5114065;28;20526;-57
2023/01/20 03:34:07;;;;;;;5.60;4.87;;;;;;;-3.91;100.00;96090.28;5113726;28;20209;-57
2023/01/20 03:36:35;;;;;;;5.13;4.63;;;;;;;-3.85;100.00;96107.25;5113214;28;20203;-58
2023/01/20 03:39:02;;;;;;;5.63;4.57;;;;;;;-3.85;100.00;96102.91;5112969;28;20204;-57
2023/01/20 03:41:35;;;;;;;5.23;4.67;;;;;;;-3.76;100.00;96099.09;5113669;28;20211;-58
2023/01/20 03:44:08;;;;;;;5.27;4.77;;;;;;;-3.74;100.00;96102.44;5113240;28;20197;-57
2023/01/20 03:46:42;;;;;;;5.60;4.70;;;;;;;-3.75;100.00;96104.16;5112753;28;20665;-57
2023/01/20 03:49:15;;;;;;;8.13;5.07;;;;;;;-3.76;100.00;96104.25;5113080;28;20228;-58
2023/01/20 03:51:48;;;;;;;5.30;4.80;;;;;;;-3.75;100.00;96103.31;5113195;28;20215;-58
2023/01/20 03:54:19;;;;;;;4.77;4.37;;;;;;;-3.75;100.00;96103.31;5113269;28;20205;-58
2023/01/20 03:56:51;;;;;;;5.17;4.67;;;;;;;-3.82;100.00;96107.09;5112756;28;20210;-58
2023/01/20 03:59:18;;;;;;;6.93;5.17;;;;;;;-3.76;100.00;96112.84;5113053;28;20204;-57
2023/01/20 04:01:45;;;;;;;6.37;4.70;;;;;;;-3.79;100.00;96119.91;5112462;28;20225;-57
2023/01/20 04:04:15;;;;;;;4.90;4.50;;;;;;;-3.80;100.00;96119.06;5112270;28;20203;-58
2023/01/20 04:06:44;;;;;;;5.30;4.80;;;;;;;-3.82;100.00;96122.59;5112983;28;20201;-58
2023/01/20 04:09:12;;;;;;;5.47;4.97;;;;;;;-3.81;100.00;96124.28;5111569;28;20575;-58
2023/01/20 04:11:39;;;;;;;5.40;4.90;;;;;;;-3.81;100.00;96130.28;5113054;28;20220;-57
2023/01/20 04:14:08;;;;;;;5.33;4.83;;;;;;;-3.79;100.00;96130.22;5111686;28;20861;-57
2023/01/20 04:16:35;;;;;;;5.30;4.80;;;;;;;-3.74;100.00;96131.69;5113313;28;20209;-58
2023/01/20 04:19:01;;;;;;;5.30;4.80;;;;;;;-3.74;100.00;96131.69;5112253;28;20554;-58
2023/01/20 04:21:31;;;;;;;5.13;4.67;;;;;;;-3.75;100.00;96134.31;5112652;28;20212;-57
2023/01/20 04:24:03;;;;;;;5.23;4.63;;;;;;;-3.80;100.00;96142.31;5111421;28;20208;-57
2023/01/20 04:26:29;;;;;;;5.33;4.83;;;;;;;-3.77;100.00;96138.72;5112606;28;20189;-58
2023/01/20 04:28:56;;;;;;;5.77;5.23;;;;;;;-3.75;100.00;96144.66;5112527;28;20227;-57
2023/01/20 04:31:22;;;;;;;5.60;5.00;;;;;;;-3.80;100.00;96146.63;5113215;28;20226;-59
2023/01/20 04:33:49;;;;;;;5.53;4.87;;;;;;;-3.78;100.00;96139.63;5112675;28;20205;-59
2023/01/20 04:36:15;;;;;;;5.80;5.30;;;;;;;-3.79;100.00;96148.31;5116216;28;20200;-57
2023/01/20 04:38:42;;;;;;;5.33;4.90;;;;;;;-3.74;100.00;96152.34;5115211;28;20190;-58
2023/01/20 04:41:11;;;;;;;6.50;5.90;;;;;;;-3.70;100.00;96158.22;5114977;28;20562;-58
2023/01/20 04:43:37;;;;;;;8.80;6.10;;;;;;;-3.70;100.00;96153.06;5113070;28;20207;-58
2023/01/20 04:46:04;;;;;;;6.23;5.63;;;;;;;-3.71;100.00;96159.13;5113093;28;20727;-57
2023/01/20 04:48:31;;;;;;;6.53;5.63;;;;;;;-3.71;100.00;96164.28;5114401;28;20546;-58
2023/01/20 04:50:57;;;;;;;6.50;5.87;;;;;;;-3.65;100.00;96156.28;5112891;28;20652;-58
2023/01/20 04:53:23;;;;;;;9.93;6.80;;;;;;;-3.64;100.00;96176.00;5112535;28;20209;-58
2023/01/20 04:55:50;;;;;;;12.23;10.00;;;;;;;-3.57;100.00;96170.50;5113391;28;20197;-58
2023/01/20 04:58:18;;;;;;;8.20;6.53;;;;;;;-3.57;100.00;96167.91;5113518;28;20193;-57
2023/01/20 05:00:44;;;;;;;7.43;6.73;;;;;;;-3.55;100.00;96181.63;5112121;28;20205;-58
2023/01/20 05:03:11;;;;;;;6.93;6.23;;;;;;;-3.56;100.00;96177.34;5112370;28;20207;-57
2023/01/20 05:05:37;;;;;;;6.63;6.03;;;;;;;-3.62;100.00;96185.41;5113402;28;20212;-58
2023/01/20 05:08:04;;;;;;;5.87;5.40;;;;;;;-3.52;100.00;96184.06;5113770;28;20211;-57
2023/01/20 05:10:32;;;;;;;7.97;6.80;;;;;;;-3.46;100.00;96195.03;5111996;28;20208;-58
2023/01/20 05:12:58;;;;;;;7.07;6.43;;;;;;;-3.57;100.00;96191.19;5110764;28;20589;-57
2023/01/20 05:15:26;;;;;;;7.87;6.90;;;;;;;-3.52;100.00;96197.00;5111834;28;20216;-58
2023/01/20 05:17:52;;;;;;;6.90;6.30;;;;;;;-3.42;100.00;96196.56;5111431;28;20548;-58
2023/01/20 05:20:19;;;;;;;6.87;6.17;;;;;;;-3.40;100.00;96203.31;5115196;28;20209;-58
2023/01/20 05:22:46;;;;;;;9.80;8.27;;;;;;;-3.45;100.00;96202.72;5118038;28;20573;-58
2023/01/20 05:25:13;;;;;;;8.30;7.00;;;;;;;-3.44;100.00;96207.00;5118294;28;20208;-57
2023/01/20 05:27:39;;;;;;;7.40;6.70;;;;;;;-3.45;100.00;96210.47;5114423;28;21397;-59
2023/01/20 05:30:07;;;;;;;8.20;7.40;;;;;;;-3.44;100.00;96216.47;5113489;28;20231;-58
2023/01/20 05:32:35;;;;;;;8.27;7.17;;;;;;;-3.37;100.00;96210.97;5111627;28;20207;-58
2023/01/20 05:35:01;;;;;;;7.80;6.93;;;;;;;-3.34;100.00;96213.41;5111432;28;20212;-59
2023/01/20 05:37:28;;;;;;;8.13;7.30;;;;;;;-3.24;100.00;96224.16;5111813;28;20205;-58
2023/01/20 05:39:54;;;;;;;7.93;7.13;;;;;;;-3.25;100.00;96230.22;5111632;28;20208;-57
2023/01/20 05:42:21;;;;;;;8.30;7.00;;;;;;;-3.29;100.00;96237.28;5111034;28;20218;-57
2023/01/20 05:44:48;;;;;;;7.93;7.13;;;;;;;-3.27;100.00;96243.25;5111864;28;20203;-57
2023/01/20 05:47:14;;;;;;;7.53;6.83;;;;;;;-3.27;100.00;96245.81;5111687;28;20205;-57
2023/01/20 05:49:42;;;;;;;8.20;7.17;;;;;;;-3.21;100.00;96260.22;5111357;28;20233;-58
2023/01/20 05:52:08;;;;;;;8.00;7.20;;;;;;;-3.20;100.00;96257.56;5111300;28;20201;-58
2023/01/20 05:54:35;;;;;;;7.60;6.90;;;;;;;-3.14;100.00;96257.28;5111580;28;20197;-59
2023/01/20 05:57:03;;;;;;;7.37;6.67;;;;;;;-3.15;100.00;96260.75;5115105;28;20217;-59
2023/01/20 05:59:29;;;;;;;8.13;7.10;;;;;;;-3.07;100.00;96263.84;5115565;28;20197;-60
2023/01/20 06:01:55;;;;;;;8.70;7.80;;;;;;;-3.05;100.00;96277.53;5115946;28;20224;-58
2023/01/20 06:04:22;;;;;;;7.87;6.90;;;;;;;-2.99;100.00;96273.00;5113482;28;20213;-59
2023/01/20 06:06:50;;;;;;;8.43;7.53;;;;;;;-2.91;100.00;96281.25;5114480;28;20645;-59
2023/01/20 06:09:16;;;;;;;8.37;6.90;;;;;;;-2.81;100.00;96282.50;5114457;28;20224;-59
2023/01/20 06:11:43;;;;;;;8.23;7.43;;;;;;;-2.80;100.00;96292.75;5115963;28;20200;-59
2023/01/20 06:14:09;;;;;;;8.20;7.40;;;;;;;-2.77;100.00;96300.41;5112038;28;20980;-59
2023/01/20 06:16:36;;;;;;;9.27;8.07;;;;;;;-2.74;100.00;96296.84;5111539;28;20209;-60
2023/01/20 06:19:02;;;;;;;8.60;7.53;;;;;;;-2.77;100.00;96296.97;5109812;28;20193;-59
2023/01/20 06:21:29;;;;;;;8.83;7.77;;;;;;;-2.81;100.00;96306.63;5111580;28;20197;-57
2023/01/20 06:23:56;;;;;;;8.93;8.03;;;;;;;-2.83;100.00;96311.03;5118887;28;20201;-60
2023/01/20 06:26:23;;;;;;;9.33;7.90;;;;;;;-2.79;100.00;96302.22;5119825;28;20209;-57
2023/01/20 06:28:49;;;;;;;8.90;7.77;;;;;;;-2.76;100.00;96314.16;5110644;28;20217;-58
2023/01/20 06:31:17;;;;;;;9.13;8.10;;;;;;;-2.83;100.00;96320.53;5110714;28;20220;-58
2023/01/20 06:33:43;;;;;;;10.50;9.17;;;;;;;-2.81;100.00;96323.91;5114829;28;20205;-58
2023/01/20 06:36:12;;;;;;;8.80;7.90;;;;;;;-2.77;100.00;96320.25;5114878;28;20223;-59
2023/01/20 06:38:38;;;;;;;10.80;8.30;;;;;;;-2.79;100.00;96324.66;5114288;28;20205;-58
2023/01/20 06:41:09;;;;;;;11.77;7.87;;;;;;;-2.71;100.00;96328.59;5112722;28;20209;-58
2023/01/20 06:43:38;;;;;;;10.77;8.47;;;;;;;-2.75;100.00;96331.38;5114312;28;20505;-58
2023/01/20 06:46:07;;;;;;;8.37;7.67;;;;;;;-2.78;100.00;96336.69;5118953;28;20221;-59
2023/01/20 06:48:33;;;;;;;10.23;7.63;;;;;;;-2.72;100.00;96344.16;5123172;28;20653;-58
2023/01/20 06:51:00;;;;;;;9.60;8.50;;;;;;;-2.67;100.00;96340.47;5123436;28;20211;-59
2023/01/20 06:53:27;;;;;;;8.63;7.73;;;;;;;-2.60;100.00;96341.03;5127145;28;20530;-59
2023/01/20 06:55:54;;;;;;;9.70;8.70;;;;;;;-2.60;100.00;96341.03;5119532;28;20201;-58
2023/01/20 06:58:23;;;;;;;8.67;7.87;;;;;;;-2.52;100.00;96346.69;5114488;28;20204;-58
2023/01/20 07:00:49;;;;;;;8.77;7.87;;;;;;;-2.51;100.00;96353.53;5114329;28;20204;-58
2023/01/20 07:03:16;;;;;;;10.53;7.90;;;;;;;-2.51;100.00;96356.13;5114973;28;20208;-63
2023/01/20 07:05:42;;;;;;;8.97;8.07;;;;;;;-2.52;100.00;96360.47;5115004;28;20209;-58
2023/01/20 07:08:10;;;;;;;9.53;8.43;;;;;;;-2.42;100.00;96362.63;5114525;28;20204;-59
2023/01/20 07:10:36;;;;;;;9.80;8.80;;;;;;;-2.38;100.00;96359.00;5114441;28;20240;-59
2023/01/20 07:13:03;;;;;;;11.63;8.30;;;;;;;-2.32;100.00;96366.47;5115511;28;20213;-58
2023/01/20 07:15:31;;;;;;;10.13;8.23;;;;;;;-2.26;100.00;96377.38;5114689;28;20220;-60
2023/01/20 07:17:58;;;;;;;9.83;8.83;;;;;;;-2.28;100.00;96379.19;5113666;28;20215;-64
2023/01/20 07:20:24;;;;;;;9.93;8.67;;;;;;;-2.22;100.00;96389.25;5113639;28;20216;-59
2023/01/20 07:22:51;;;;;;;9.13;8.17;;;;;;;-2.19;100.00;96388.28;5114690;28;20208;-59
2023/01/20 07:25:17;;;;;;;8.67;7.77;;;;;;;-2.20;100.00;96396.97;5113931;28;20641;-59
2023/01/20 07:27:44;;;;;;;9.03;8.00;;;;;;;-2.18;100.00;96406.34;5114802;28;20215;-59
2023/01/20 07:30:11;;;;;;;9.30;8.50;;;;;;;-2.19;100.00;96406.41;5113264;28;20220;-59
2023/01/20 07:32:39;;;;;;;8.03;7.33;;;;;;;-2.27;100.00;96411.97;5112767;28;20212;-59
2023/01/20 07:35:06;;;;;;;12.23;8.47;;;;;;;-2.34;100.00;96415.75;5114419;28;20218;-59
2023/01/20 07:37:32;;;;;;;9.43;8.27;;;;;;;-2.45;100.00;96417.97;5115720;28;20216;-60
2023/01/20 07:40:01;;;;;;;10.60;8.43;;;;;;;-2.36;100.00;96421.88;5114171;28;20201;-59
2023/01/20 07:42:27;;;;;;;9.63;7.80;;;;;;;-2.29;100.00;96428.47;5112845;28;20205;-59
2023/01/20 07:44:54;;;;;;;8.57;7.67;;;;;;;-2.27;100.00;96427.50;5112746;28;20205;-59
2023/01/20 07:47:20;;;;;;;8.27;7.50;;;;;;;-2.26;100.00;96433.50;5123063;28;20201;-60
2023/01/20 07:49:48;;;;;;;8.87;7.93;;;;;;;-2.17;100.00;96433.94;5135247;28;20204;-60
2023/01/20 07:52:14;;;;;;;9.47;8.47;;;;;;;-2.11;100.00;96440.56;5137581;28;20171;-60
2023/01/20 07:54:43;;;;;;;7.97;7.27;;;;;;;-2.11;100.00;96451.75;5126013;28;20209;-60
2023/01/20 07:57:10;;;;;;;9.37;8.00;;;;;;;-2.02;100.00;96450.50;5123826;28;20207;-58
2023/01/20 07:59:37;;;;;;;12.07;9.70;;;;;;;-1.98;100.00;96453.78;5113950;28;20189;-60
2023/01/20 08:02:03;;;;;;;9.60;8.70;;;;;;;-1.93;100.00;96452.66;5094140;28;20332;-60
2023/01/20 08:04:30;;;;;;;9.83;8.30;;;;;;;-2.02;100.00;96455.69;5110873;28;20646;-59
2023/01/20 08:06:57;;;;;;;10.47;8.67;;;;;;;-1.99;99.02;96459.88;5112074;28;20636;-59
2023/01/20 08:09:24;;;;;;;12.03;9.00;;;;;;;-1.98;98.52;96459.78;5113145;28;20349;-59
2023/01/20 08:11:50;;;;;;;10.17;8.80;;;;;;;-1.95;98.96;96464.00;5113763;28;20194;-59
2023/01/20 08:14:17;;;;;;;9.43;8.23;;;;;;;-1.94;96.97;96473.44;5114884;28;20221;-60
2023/01/20 08:16:44;;;;;;;9.87;8.53;;;;;;;-1.89;97.61;96474.91;5117857;28;20204;-60
2023/01/20 08:19:10;;;;;;;11.43;8.37;;;;;;;-1.86;97.15;96473.94;5116518;28;20204;-59
2023/01/20 08:21:36;;;;;;;9.07;7.93;;;;;;;-1.81;97.96;96477.16;5117545;28;20193;-59
2023/01/20 08:24:05;;;;;;;8.43;7.63;;;;;;;-1.77;99.05;96482.09;5112633;28;20204;-59
2023/01/20 08:26:32;;;;;;;8.33;7.50;;;;;;;-1.70;97.89;96485.28;5111914;28;20197;-59
2023/01/20 08:29:01;;;;;;;7.83;7.10;;;;;;;-1.76;97.48;96482.94;5112047;28;20209;-59
2023/01/20 08:31:28;;;;;;;11.73;7.97;;;;;;;-1.69;97.34;96481.75;5111972;28;20272;-59
2023/01/20 08:33:55;;;;;;;9.87;7.87;;;;;;;-1.57;99.30;96489.78;5112174;28;20334;-59
2023/01/20 08:36:23;;;;;;;8.30;7.50;;;;;;;-1.49;97.89;96489.44;5112281;28;20201;-59
2023/01/20 08:38:50;;;;;;;7.93;7.07;;;;;;;-1.50;94.30;96485.16;5112492;28;20197;-58
2023/01/20 08:41:20;;;;;;;8.00;6.97;;;;;;;-1.52;94.18;96492.13;5112657;28;20197;-60
2023/01/20 08:43:47;;;;;;;7.47;6.77;;;;;;;-1.38;93.39;96505.28;5112001;28;20220;-58
2023/01/20 08:46:15;;;;;;;9.30;6.50;;;;;;;-1.43;94.48;96503.84;5112449;28;20208;-60
2023/01/20 08:48:42;;;;;;;7.20;5.90;;;;;;;-1.42;92.73;96516.75;5111872;28;20208;-62
2023/01/20 08:51:12;;;;;;;8.80;6.43;;;;;;;-1.42;91.53;96516.75;5110919;28;20220;-62
2023/01/20 08:53:39;;;;;;;6.70;6.10;;;;;;;-1.36;92.08;96510.41;5113502;28;20209;-61
2023/01/20 08:56:07;;;;;;;7.57;6.13;;;;;;;-1.14;93.36;96516.22;5111973;28;20637;-58
2023/01/20 08:58:35;;;;;;;7.17;6.57;;;;;;;-1.07;93.15;96518.47;5112159;28;20206;-64
2023/01/20 09:01:01;;;;;;;8.50;7.13;;;;;;;-1.03;92.83;96516.56;5111357;28;20284;-57
2023/01/20 09:03:28;;;;;;;6.93;6.33;;;;;;;-0.97;91.70;96523.19;5111982;28;20258;-62
2023/01/20 09:05:55;;;;;;;6.43;5.83;;;;;;;-1.00;90.35;96526.78;5110119;28;20660;-59
2023/01/20 09:08:25;;;;;;;8.13;6.70;;;;;;;-1.10;90.26;96538.53;5111011;28;20201;-59
2023/01/20 09:10:53;;;;;;;6.97;6.30;;;;;;;-0.92;90.64;96539.38;5110424;28;20210;-60
2023/01/20 09:13:19;;;;;;;6.80;6.10;;;;;;;-0.86;92.30;96536.47;5112745;28;20206;-60
2023/01/20 09:15:52;;;;;;;6.87;6.03;;;;;;;-0.86;90.72;96537.31;5111532;28;20198;-59
2023/01/20 09:18:18;;;;;;;9.73;6.63;;;;;;;-0.74;90.79;96548.81;5094770;28;20206;-59
2023/01/20 09:20:45;;;;;;;7.53;6.10;;;;;;;-0.71;88.67;96556.47;5110838;28;20279;-60
2023/01/20 09:23:11;;;;;;;6.80;6.20;;;;;;;-0.69;88.91;96565.00;5109996;28;20213;-60
2023/01/20 09:25:38;;;;;;;6.60;6.00;;;;;;;-0.61;88.19;96562.88;5110359;28;20216;-59
2023/01/20 09:28:04;;;;;;;6.53;5.90;;;;;;;-0.54;86.89;96569.44;5110556;28;20578;-59
2023/01/20 09:30:31;;;;;;;7.60;6.77;;;;;;;-0.48;89.68;96569.13;5110517;28;20214;-58
2023/01/20 09:32:59;;;;;;;7.00;6.40;;;;;;;-0.49;86.97;96572.63;5112098;28;20210;-60
2023/01/20 09:35:26;;;;;;;7.00;6.30;;;;;;;-0.39;87.88;96571.22;5111141;28;20200;-59
2023/01/20 09:46:28;;;;;;;7.47;6.30;;;;;;;-0.35;85.19;96597.91;5112663;28;20235;-58
2023/01/20 09:54:41;;;;;;;7.97;7.03;;;;;;;-0.08;83.00;96593.91;5113281;28;20234;-59
2023/01/20 09:57:08;;;;;;;5.00;4.50;;;;;;;-0.09;82.39;96593.06;5113278;28;20207;-59
2023/01/20 09:59:37;;;;;;;5.67;5.10;;;;;;;-0.05;81.60;96596.34;5111051;28;20199;-59
2023/01/20 10:02:07;;;;;;;6.30;4.93;;;;;;;0.07;81.61;96602.66;5111938;28;20227;-59
2023/01/20 10:04:39;;;;;;;4.47;3.83;;;;;;;0.16;79.40;96596.97;5110195;28;20334;-59
2023/01/20 10:07:09;;;;;;;6.03;4.40;;;;;;;0.31;79.14;96598.75;5114082;28;20208;-58
2023/01/20 10:09:38;;;;;;;6.67;4.73;;;;;;;0.32;80.88;96597.84;5115141;28;20214;-59
2023/01/20 10:12:09;;;;;;;4.90;4.50;;;;;;;0.44;78.95;96586.75;5115912;28;20221;-59
2023/01/20 10:14:39;;;;;;;13.73;6.37;;;;;;;0.48;79.22;96593.47;5132784;28;20232;-59
2023/01/20 10:17:10;;;;;;;8.27;5.30;;;;;;;0.68;77.68;96585.41;5136140;28;20185;-58
2023/01/20 10:19:42;;;;;;;6.00;5.00;;;;;;;0.65;76.74;96585.59;5137556;28;20264;-61
2023/01/20 10:22:11;;;;;;;5.87;5.07;;;;;;;0.69;76.81;96591.47;5117029;28;20640;-59
2023/01/20 10:24:43;;;;;;;5.03;4.63;;;;;;;0.63;78.84;96595.25;5115213;28;20205;-59
2023/01/20 10:27:10;;;;;;;7.80;5.13;;;;;;;0.68;76.55;96601.03;5114697;28;20216;-59
2023/01/20 10:29:37;;;;;;;7.97;5.40;;;;;;;0.74;79.47;96592.91;5114394;28;20207;-60
2023/01/20 10:32:06;;;;;;;6.40;5.80;;;;;;;0.66;77.26;96597.69;5114585;28;20219;-60
2023/01/20 10:34:40;;;;;;;6.80;6.00;;;;;;;0.73;77.90;96592.97;5114982;28;20212;-60
2023/01/20 10:37:10;;;;;;;8.70;6.40;;;;;;;0.66;78.04;96595.09;5114969;28;20204;-60
2023/01/20 10:39:42;;;;;;;7.00;5.73;;;;;;;0.61;76.23;96597.09;5114039;28;20203;-59
2023/01/20 10:42:12;;;;;;;6.43;5.43;;;;;;;0.64;77.04;96602.13;5114267;28;20254;-60
2023/01/20 10:44:38;;;;;;;7.63;5.10;;;;;;;0.74;79.72;96605.06;5114898;28;20203;-59
2023/01/20 10:47:16;;;;;;;10.27;5.90;;;;;;;0.88;77.89;96598.19;5113972;28;20536;-59
2023/01/20 10:49:56;;;;;;;4.90;4.50;;;;;;;1.02;75.61;96597.41;5113609;28;20200;-60
2023/01/20 10:52:32;;;;;;;5.90;5.30;;;;;;;1.29;72.44;96598.44;5113708;28;20196;-61
2023/01/20 10:55:07;;;;;;;10.57;5.20;;;;;;;1.82;73.85;96603.13;5113017;28;20196;-59
2023/01/20 10:57:34;;;;;;;7.13;5.10;;;;;;;2.40;72.55;96597.00;5112585;28;20196;-60
2023/01/20 11:00:02;;;;;;;6.10;4.83;;;;;;;2.78;71.33;96603.28;5112592;28;20205;-60
2023/01/20 11:02:33;;;;;;;6.03;5.43;;;;;;;3.20;68.21;96606.69;5114448;28;20330;-59
2023/01/20 11:05:09;;;;;;;5.77;4.43;;;;;;;3.47;65.96;96612.75;5111818;28;20629;-60
2023/01/20 11:07:35;;;;;;;4.97;4.40;;;;;;;3.75;66.48;96609.16;5112899;28;20192;-60
2023/01/20 11:10:14;;;;;;;4.17;3.87;;;;;;;3.95;64.65;96608.66;5112498;28;20239;-60
2023/01/20 11:12:42;;;;;;;5.10;4.70;;;;;;;4.36;63.73;96600.56;5113099;28;20201;-64
2023/01/20 11:15:17;;;;;;;16.03;8.70;;;;;;;4.08;63.17;96606.88;5113521;28;20220;-58
2023/01/20 11:17:44;;;;;;;6.37;5.27;;;;;;;4.60;62.26;96614.59;5112088;28;20323;-58
2023/01/20 11:20:19;;;;;;;4.33;3.93;;;;;;;4.67;60.40;96605.38;5113797;28;20215;-59
2023/01/20 11:22:46;;;;;;;4.40;4.10;;;;;;;4.72;60.63;96605.03;5113053;28;20284;-61
2023/01/20 11:25:24;;;;;;;3.83;3.53;;;;;;;5.02;58.46;96602.84;5110913;28;20292;-59
2023/01/20 11:27:50;;;;;;;4.47;4.07;;;;;;;5.16;57.23;96609.72;5113854;27;20625;-60
2023/01/20 11:30:24;;;;;;;3.90;3.50;;;;;;;5.15;56.92;96611.50;5113601;28;20225;-61
2023/01/20 11:33:08;;;;;;;3.87;3.57;;;;;;;5.19;57.49;96612.13;5114286;28;20212;-59
2023/01/20 11:35:36;;;;;;;4.10;3.70;;;;;;;4.91;57.94;96613.25;5112939;28;20227;-61
2023/01/20 11:38:21;;;;;;;4.70;4.30;;;;;;;4.49;59.50;96622.34;5114916;28;20197;-60
2023/01/20 11:40:52;;;;;;;5.17;4.13;;;;;;;4.25;60.32;96619.63;5113089;28;20510;-59
2023/01/20 11:43:28;;;;;;;4.63;3.90;;;;;;;4.12;60.35;96623.19;5117229;28;20220;-58
2023/01/20 11:46:24;;;;;;;4.50;4.10;;;;;;;4.10;60.43;96625.94;5120116;28;20245;-66
2023/01/20 11:48:51;;;;;;;4.27;3.87;;;;;;;3.79;60.50;96624.50;5113491;28;20214;-62